createdAt,value
2022-10-20T00:01:31.880Z,81.61
2022-10-20T00:03:58.461Z,82.29
2022-10-20T00:06:30.971Z,83.34
2022-10-20T00:09:00.621Z,83.63
2022-10-20T00:11:28.603Z,82.89
2022-10-20T00:13:56.732Z,83.40
2022-10-20T00:16:24.903Z,84.44
2022-10-20T00:18:51.587Z,85.08
2022-10-20T00:21:24.210Z,85.91
2022-10-20T00:23:51.023Z,85.13
2022-10-20T00:26:23.633Z,83.91
2022-10-20T00:28:51.254Z,85.79
2022-10-20T00:31:19.599Z,89.10
2022-10-20T00:33:46.627Z,89.11
2022-10-20T00:36:15.727Z,89.25
2022-10-20T00:38:42.901Z,89.36
2022-10-20T00:41:13.685Z,89.84
2022-10-20T00:43:50.843Z,90.93
2022-10-20T00:46:21.352Z,90.42
2022-10-20T00:48:55.032Z,90.38
2022-10-20T00:51:27.780Z,90.06
2022-10-20T00:54:03.426Z,88.95
2022-10-20T00:56:30.137Z,88.98
2022-10-20T00:58:56.719Z,88.37
2022-10-20T01:01:23.284Z,88.19
2022-10-20T01:03:51.360Z,87.80
2022-10-20T01:06:21.486Z,87.72
2022-10-20T01:08:50.646Z,87.37
2022-10-20T01:11:37.510Z,86.77
2022-10-20T01:14:10.024Z,87.53
2022-10-20T01:16:46.739Z,87.55
2022-10-20T01:19:36.792Z,87.44
2022-10-20T01:22:30.547Z,87.51
2022-10-20T01:25:30.945Z,86.87
2022-10-20T01:28:29.685Z,87.90
2022-10-20T01:31:03.641Z,88.05
2022-10-20T01:33:33.104Z,87.55
2022-10-20T01:36:14.143Z,86.86
2022-10-20T01:39:17.132Z,87.15
2022-10-20T01:41:53.279Z,86.50
2022-10-20T01:44:22.620Z,86.80
2022-10-20T01:46:49.261Z,85.75
2022-10-20T01:49:16.580Z,84.70
2022-10-20T01:51:43.092Z,84.37
2022-10-20T01:54:24.448Z,84.89
2022-10-20T01:57:05.222Z,84.67
2022-10-20T01:59:56.580Z,85.75
2022-10-20T02:02:44.998Z,86.86
2022-10-20T02:05:32.780Z,87.19
2022-10-20T02:08:28.249Z,85.10
2022-10-20T02:10:59.198Z,84.82
2022-10-20T02:13:28.363Z,84.93
2022-10-20T02:15:59.024Z,84.76
2022-10-20T02:18:30.731Z,84.88
2022-10-20T02:20:59.939Z,84.42
2022-10-20T02:23:28.420Z,84.22
2022-10-20T02:25:56.791Z,84.57
2022-10-20T02:28:23.855Z,84.80
2022-10-20T02:30:50.423Z,84.08
2022-10-20T02:33:17.845Z,84.48
2022-10-20T02:35:50.597Z,83.50
2022-10-20T02:38:17.453Z,83.33
2022-10-20T02:40:44.484Z,82.31
2022-10-20T02:43:11.007Z,82.55
2022-10-20T02:45:37.575Z,83.25
2022-10-20T02:48:06.338Z,82.85
2022-10-20T02:50:34.647Z,83.00
2022-10-20T02:53:01.189Z,83.70
2022-10-20T02:55:27.748Z,83.25
2022-10-20T02:57:54.440Z,83.42
2022-10-20T03:00:21.843Z,83.27
2022-10-20T03:02:48.441Z,83.68
2022-10-20T03:05:15.408Z,83.29
2022-10-20T03:07:41.941Z,84.02
2022-10-20T03:10:09.080Z,84.52
2022-10-20T03:12:35.646Z,84.52
2022-10-20T03:15:02.197Z,84.56
2022-10-20T03:17:28.708Z,84.32
2022-10-20T03:19:55.226Z,83.94
2022-10-20T03:22:21.921Z,84.20
2022-10-20T03:24:48.434Z,83.49
2022-10-20T03:27:15.002Z,83.45
2022-10-20T03:29:41.531Z,83.46
2022-10-20T03:32:08.032Z,83.35
2022-10-20T03:34:34.568Z,82.60
2022-10-20T03:37:01.078Z,82.47
2022-10-20T03:39:27.648Z,82.07
2022-10-20T03:41:54.682Z,81.80
2022-10-20T03:44:21.232Z,81.83
2022-10-20T03:46:47.732Z,81.94
2022-10-20T03:49:14.301Z,81.64
2022-10-20T03:51:40.895Z,81.97
2022-10-20T03:54:07.431Z,82.16
2022-10-20T03:56:34.048Z,82.73
2022-10-20T03:59:00.627Z,83.19
2022-10-20T04:01:30.821Z,83.89
2022-10-20T04:03:57.564Z,83.75
2022-10-20T04:06:24.393Z,83.11
2022-10-20T04:08:51.008Z,82.97
2022-10-20T04:11:17.727Z,82.72
2022-10-20T04:13:44.364Z,82.48
2022-10-20T04:16:10.883Z,82.47
2022-10-20T04:18:37.487Z,82.17
2022-10-20T04:21:04.257Z,82.67
2022-10-20T04:23:30.836Z,82.52
2022-10-20T04:25:57.328Z,82.69
2022-10-20T04:28:23.868Z,83.20
2022-10-20T04:30:50.427Z,82.69
2022-10-20T04:33:17.326Z,82.98
2022-10-20T04:35:44.119Z,83.75
2022-10-20T04:38:10.827Z,85.18
2022-10-20T04:40:37.432Z,85.13
2022-10-20T04:43:04.019Z,83.96
2022-10-20T04:45:30.534Z,87.35
2022-10-20T04:47:57.108Z,86.43
2022-10-20T04:50:23.678Z,86.24
2022-10-20T04:52:51.375Z,87.61
2022-10-20T04:55:17.872Z,88.34
2022-10-20T04:57:44.725Z,87.24
2022-10-20T05:00:11.712Z,87.03
2022-10-20T05:02:38.238Z,88.56
2022-10-20T05:05:05.262Z,88.90
2022-10-20T05:07:31.981Z,87.99
2022-10-20T05:09:58.514Z,87.63
2022-10-20T05:12:25.078Z,88.15
2022-10-20T05:14:51.607Z,87.43
2022-10-20T05:17:18.104Z,89.23
2022-10-20T05:19:45.763Z,89.69
2022-10-20T05:22:12.303Z,89.60
2022-10-20T05:24:38.833Z,89.93
2022-10-20T05:27:05.402Z,90.57
2022-10-20T05:29:32.027Z,89.32
2022-10-20T05:31:58.562Z,90.14
2022-10-20T05:34:25.336Z,89.20
2022-10-20T05:36:54.335Z,89.74
2022-10-20T05:39:21.163Z,89.41
2022-10-20T05:41:47.672Z,88.54
2022-10-20T05:44:14.500Z,87.78
2022-10-20T05:46:42.563Z,86.42
2022-10-20T05:49:15.731Z,83.91
2022-10-20T05:51:42.916Z,82.55
2022-10-20T05:54:11.325Z,81.71
2022-10-20T05:56:37.897Z,78.76
2022-10-20T05:59:04.457Z,79.45
2022-10-20T06:01:48.188Z,76.62
2022-10-20T06:04:23.408Z,75.40
2022-10-20T06:06:53.122Z,74.35
2022-10-20T06:09:20.610Z,73.64
2022-10-20T06:11:47.415Z,71.65
2022-10-20T06:14:14.221Z,72.22
2022-10-20T06:16:40.705Z,70.99
2022-10-20T06:19:07.377Z,70.67
2022-10-20T06:21:36.146Z,68.80
2022-10-20T06:24:05.227Z,67.56
2022-10-20T06:26:33.426Z,68.09
2022-10-20T06:29:04.302Z,66.99
2022-10-20T06:31:35.619Z,65.70
2022-10-20T06:34:05.561Z,64.31
2022-10-20T06:36:35.547Z,63.43
2022-10-20T06:39:04.550Z,62.15
2022-10-20T06:41:32.472Z,61.25
2022-10-20T06:43:59.964Z,61.10
2022-10-20T06:46:29.058Z,61.16
2022-10-20T06:48:58.634Z,60.97
2022-10-20T06:51:25.870Z,59.97
2022-10-20T06:53:52.838Z,60.75
2022-10-20T06:56:24.427Z,59.13
2022-10-20T06:58:53.096Z,58.74
2022-10-20T07:01:25.346Z,57.41
2022-10-20T07:03:55.297Z,56.77
2022-10-20T07:06:28.420Z,56.42
2022-10-20T07:08:56.513Z,57.33
2022-10-20T07:11:30.852Z,58.97
2022-10-20T07:14:02.252Z,59.28
2022-10-20T07:16:31.900Z,60.31
2022-10-20T07:18:58.846Z,60.11
2022-10-20T07:21:32.254Z,59.50
2022-10-20T07:24:03.564Z,60.23
2022-10-20T07:26:32.872Z,61.07
2022-10-20T07:29:01.452Z,60.51
2022-10-20T07:31:31.745Z,60.45
2022-10-20T07:34:06.900Z,59.06
2022-10-20T07:36:43.068Z,58.05
2022-10-20T07:39:11.174Z,57.06
2022-10-20T07:41:39.501Z,55.87
2022-10-20T07:44:07.623Z,55.41
2022-10-20T07:46:34.907Z,54.51
2022-10-20T07:51:48.103Z,53.77
2022-10-20T07:54:14.723Z,52.73
2022-10-20T07:56:44.643Z,51.92
2022-10-20T07:59:11.927Z,50.65
2022-10-20T08:01:39.683Z,50.15
2022-10-20T08:04:06.242Z,48.64
2022-10-20T08:06:32.881Z,47.84
2022-10-20T08:09:00.296Z,45.93
2022-10-20T08:11:27.224Z,44.93
2022-10-20T08:13:53.781Z,42.94
2022-10-20T08:16:31.002Z,42.38
2022-10-20T08:21:38.025Z,42.11
2022-10-20T08:24:04.871Z,42.89
2022-10-20T08:26:31.435Z,41.93
2022-10-20T08:28:58.025Z,41.00
2022-10-20T08:31:24.773Z,42.81
2022-10-20T08:33:53.077Z,42.19
2022-10-20T08:36:20.727Z,40.92
2022-10-20T08:38:47.571Z,40.99
2022-10-20T08:41:38.745Z,41.76
2022-10-20T08:44:27.543Z,38.56
2022-10-20T08:46:54.385Z,37.31
2022-10-20T08:49:27.998Z,36.58
2022-10-20T08:51:54.970Z,35.30
2022-10-20T08:54:21.658Z,37.54
2022-10-20T08:56:48.311Z,39.25
2022-10-20T08:59:33.408Z,39.42
2022-10-20T09:02:00.998Z,39.81
2022-10-20T09:04:27.537Z,38.90
2022-10-20T09:06:59.520Z,37.89
2022-10-20T09:09:30.344Z,37.18
2022-10-20T09:12:04.521Z,37.86
2022-10-20T09:14:35.756Z,39.77
2022-10-20T09:17:02.635Z,39.86
2022-10-20T09:19:29.792Z,41.85
2022-10-20T09:22:04.058Z,42.68
2022-10-20T09:24:31.837Z,45.48
2022-10-20T09:27:19.507Z,43.66
2022-10-20T09:29:46.083Z,44.21
2022-10-20T09:32:46.102Z,44.62
2022-10-20T09:35:21.533Z,44.05
2022-10-20T10:11:36.626Z,39.25
2022-10-20T10:25:29.521Z,40.02
2022-10-20T10:28:20.574Z,40.88
2022-10-20T10:30:49.522Z,41.63
2022-10-20T10:33:26.824Z,39.61
2022-10-20T10:35:53.458Z,38.07
2022-10-20T10:38:20.586Z,42.08
2022-10-20T10:41:16.220Z,40.08
2022-10-20T10:43:52.043Z,38.99
2022-10-20T10:46:28.380Z,40.87
2022-10-20T10:49:19.796Z,39.51
2022-10-20T10:52:09.970Z,40.53
2022-10-20T10:54:45.445Z,38.24
2022-10-20T10:57:41.036Z,37.50
2022-10-20T11:00:17.633Z,37.05
2022-10-20T11:02:50.306Z,38.86
2022-10-20T11:05:49.396Z,37.48
2022-10-20T11:08:31.217Z,37.16
2022-10-20T11:11:39.276Z,36.15
2022-10-20T11:14:44.263Z,35.35
2022-10-20T11:17:35.381Z,38.22
2022-10-20T11:20:02.160Z,37.43
2022-10-20T11:22:53.048Z,36.75
2022-10-20T11:26:14.149Z,37.63
2022-10-20T11:28:49.967Z,35.87
2022-10-20T11:31:25.221Z,35.25
2022-10-20T11:34:10.383Z,34.98
2022-10-20T11:36:45.237Z,35.52
2022-10-20T11:39:25.193Z,35.69
2022-10-20T11:41:56.440Z,36.68
2022-10-20T11:44:40.677Z,33.13
2022-10-20T11:47:12.796Z,34.88
2022-10-20T11:49:40.901Z,32.10
2022-10-20T11:52:10.252Z,32.30
2022-10-20T11:55:04.646Z,31.46
2022-10-20T11:57:43.106Z,33.07
2022-10-20T12:00:41.789Z,33.11
2022-10-20T12:03:28.717Z,31.74
2022-10-20T12:06:27.595Z,33.96
2022-10-20T12:09:03.023Z,32.38
2022-10-20T12:12:06.157Z,34.79
2022-10-20T12:14:43.224Z,34.97
2022-10-20T12:17:15.603Z,34.83
2022-10-20T12:19:42.224Z,34.45
2022-10-20T12:22:14.860Z,31.35
2022-10-20T12:25:04.324Z,32.75
2022-10-20T12:27:31.131Z,31.89
2022-10-20T12:30:00.540Z,32.94
2022-10-20T12:32:52.679Z,31.01
2022-10-20T12:35:19.143Z,30.49
2022-10-20T12:37:56.128Z,32.86
2022-10-20T12:40:28.212Z,30.63
2022-10-20T12:42:56.030Z,31.00
2022-10-20T12:45:41.219Z,33.40
2022-10-20T12:48:19.112Z,29.45
2022-10-20T12:50:47.097Z,31.36
2022-10-20T12:53:18.956Z,31.71
2022-10-20T12:56:11.321Z,31.79
2022-10-20T12:58:58.858Z,32.14
2022-10-20T13:01:25.472Z,32.02
2022-10-20T13:03:53.056Z,32.78
2022-10-20T13:06:22.585Z,30.48
2022-10-20T13:09:04.480Z,30.73
2022-10-20T13:11:41.047Z,30.07
2022-10-20T13:14:13.666Z,32.62
2022-10-20T13:16:59.702Z,30.57
2022-10-20T13:19:38.687Z,30.57
2022-10-20T13:22:37.761Z,32.78
2022-10-20T13:25:24.796Z,31.08
2022-10-20T13:28:02.982Z,31.63
2022-10-20T13:30:31.267Z,31.35
2022-10-20T13:34:02.148Z,31.73
2022-10-20T13:36:14.965Z,33.74
2022-10-20T13:39:24.395Z,32.11
2022-10-20T13:42:23.329Z,31.81
2022-10-20T13:45:16.340Z,31.88
2022-10-20T13:47:59.305Z,32.56
2022-10-20T13:50:42.537Z,33.33
2022-10-20T13:53:23.303Z,31.13
2022-10-20T13:56:01.949Z,33.70
2022-10-20T13:58:28.544Z,32.01
2022-10-20T14:01:02.343Z,31.74
2022-10-20T14:03:31.608Z,29.56
2022-10-20T14:05:59.374Z,31.96
2022-10-20T14:08:26.061Z,30.45
2022-10-20T14:10:57.324Z,33.90
2022-10-20T14:13:30.714Z,34.55
2022-10-20T14:15:59.928Z,34.52
2022-10-20T14:18:39.553Z,33.28
2022-10-20T14:21:14.512Z,31.78
2022-10-20T14:23:43.643Z,33.46
2022-10-20T14:26:22.651Z,34.37
2022-10-20T14:28:51.016Z,33.57
2022-10-20T14:31:21.589Z,34.24
2022-10-20T14:33:51.033Z,34.35
2022-10-20T14:36:19.478Z,34.71
2022-10-20T14:38:48.190Z,34.69
2022-10-20T14:41:28.081Z,34.31
2022-10-20T14:44:12.229Z,36.56
2022-10-20T14:46:47.722Z,36.02
2022-10-20T14:49:34.395Z,36.68
2022-10-20T14:52:04.726Z,34.62
2022-10-20T14:54:36.604Z,35.23
2022-10-20T14:57:09.612Z,35.52
2022-10-20T15:00:16.685Z,36.81
2022-10-20T15:02:44.821Z,36.18
2022-10-20T15:05:45.129Z,36.37
2022-10-20T15:08:24.072Z,36.72
2022-10-20T15:10:50.675Z,36.33
2022-10-20T15:13:27.548Z,35.60
2022-10-20T15:15:55.267Z,37.55
2022-10-20T15:18:23.564Z,37.97
2022-10-20T15:20:52.277Z,36.29
2022-10-20T15:23:29.287Z,36.00
2022-10-20T15:26:03.139Z,37.76
2022-10-20T15:28:49.524Z,37.39
2022-10-20T15:31:27.772Z,38.91
2022-10-20T15:33:55.532Z,38.23
2022-10-20T15:36:41.772Z,37.50
2022-10-20T15:39:09.420Z,37.11
2022-10-20T15:41:36.999Z,38.79
2022-10-20T15:44:07.689Z,38.36
2022-10-20T15:46:34.181Z,40.74
2022-10-20T15:49:00.736Z,41.26
2022-10-20T15:51:30.160Z,41.20
2022-10-20T15:53:58.156Z,40.87
2022-10-20T15:56:25.002Z,41.41
2022-10-20T15:58:51.648Z,42.38
2022-10-20T16:01:20.126Z,42.09
2022-10-20T16:03:48.092Z,41.19
2022-10-20T16:06:16.414Z,42.74
2022-10-20T16:08:44.585Z,41.94
2022-10-20T16:11:11.889Z,43.29
2022-10-20T16:13:38.588Z,44.43
2022-10-20T16:16:06.441Z,43.19
2022-10-20T16:18:33.044Z,43.08
2022-10-20T16:20:59.904Z,42.39
2022-10-20T16:23:26.781Z,42.30
2022-10-20T16:25:53.369Z,43.07
2022-10-20T16:28:19.984Z,43.07
2022-10-20T16:30:46.603Z,43.21
2022-10-20T16:33:13.176Z,43.24
2022-10-20T16:35:45.846Z,42.23
2022-10-20T16:38:12.423Z,42.94
2022-10-20T16:40:39.009Z,43.58
2022-10-20T16:43:05.576Z,43.56
2022-10-20T16:45:32.109Z,43.79
2022-10-20T16:47:58.611Z,44.61
2022-10-20T16:50:25.182Z,45.24
2022-10-20T16:52:51.699Z,44.80
2022-10-20T16:55:18.247Z,44.59
2022-10-20T16:57:44.749Z,44.08
2022-10-20T17:00:11.758Z,44.53
2022-10-20T17:02:38.290Z,44.40
2022-10-20T17:05:08.277Z,46.11
2022-10-20T17:07:36.520Z,45.10
2022-10-20T17:10:03.466Z,46.89
2022-10-20T17:12:30.050Z,45.62
2022-10-20T17:14:56.557Z,45.98
2022-10-20T17:17:23.130Z,47.77
2022-10-20T17:19:49.686Z,46.86
2022-10-20T17:22:16.234Z,47.05
2022-10-20T17:24:42.725Z,47.43
2022-10-20T17:27:09.412Z,48.74
2022-10-20T17:29:36.105Z,48.95
2022-10-20T17:32:02.674Z,47.07
2022-10-20T17:34:29.193Z,47.04
2022-10-20T17:36:55.767Z,47.57
2022-10-20T17:39:24.056Z,47.73
2022-10-20T17:41:50.636Z,47.51
2022-10-20T17:44:17.263Z,48.92
2022-10-20T17:46:43.854Z,48.89
2022-10-20T17:49:10.389Z,48.06
2022-10-20T17:51:37.293Z,48.20
2022-10-20T17:54:05.307Z,49.58
2022-10-20T17:56:35.823Z,49.19
2022-10-20T17:59:04.643Z,49.32
2022-10-20T18:01:40.042Z,48.71
2022-10-20T18:04:15.951Z,49.35
2022-10-20T18:06:44.164Z,49.43
2022-10-20T18:09:16.370Z,49.49
2022-10-20T18:11:47.134Z,50.50
2022-10-20T18:14:14.044Z,50.56
2022-10-20T18:16:41.458Z,49.53
2022-10-20T18:19:09.778Z,50.06
2022-10-20T18:21:36.344Z,49.20
2022-10-20T18:24:06.938Z,51.36
2022-10-20T18:26:35.362Z,50.93
2022-10-20T18:29:03.415Z,49.75
2022-10-20T18:31:32.411Z,51.42
2022-10-20T18:34:04.423Z,51.85
2022-10-20T18:36:33.104Z,50.34
2022-10-20T18:39:00.483Z,55.42
2022-10-20T18:41:28.361Z,54.64
2022-10-20T18:43:58.271Z,51.23
2022-10-20T18:46:26.600Z,52.78
2022-10-20T18:48:53.274Z,51.83
2022-10-20T18:51:19.897Z,51.44
2022-10-20T18:53:47.091Z,51.85
2022-10-20T18:56:16.503Z,58.43
2022-10-20T18:58:48.621Z,54.01
2022-10-20T19:01:17.061Z,58.84
2022-10-20T19:03:48.995Z,61.34
2022-10-20T19:06:24.545Z,57.74
2022-10-20T19:09:00.503Z,55.30
2022-10-20T19:11:30.199Z,54.99
2022-10-20T19:13:57.845Z,55.50
2022-10-20T19:16:30.087Z,54.28
2022-10-20T19:18:58.339Z,54.28
2022-10-20T19:21:26.233Z,55.69
2022-10-20T19:23:58.182Z,55.19
2022-10-20T19:26:34.162Z,53.20
2022-10-20T19:29:05.236Z,53.90
2022-10-20T19:31:40.678Z,55.56
2022-10-20T19:34:16.704Z,54.35
2022-10-20T19:36:46.620Z,52.90
2022-10-20T19:39:15.504Z,53.34
2022-10-20T19:41:42.078Z,54.40
2022-10-20T19:44:12.501Z,52.32
2022-10-20T19:46:40.052Z,53.17
2022-10-20T19:51:39.371Z,55.81
2022-10-20T19:54:06.397Z,55.75
2022-10-20T19:56:33.824Z,57.60
2022-10-20T19:59:01.059Z,56.95
2022-10-20T20:01:27.794Z,56.36
2022-10-20T20:03:54.408Z,58.65
2022-10-20T20:06:22.061Z,58.96
2022-10-20T20:08:53.719Z,55.73
2022-10-20T20:11:27.457Z,56.47
2022-10-20T20:13:57.153Z,55.41
2022-10-20T20:16:23.752Z,56.20
2022-10-20T20:18:50.429Z,56.70
2022-10-20T20:21:17.305Z,58.20
2022-10-20T20:24:00.439Z,56.39
2022-10-20T20:26:29.381Z,56.32
2022-10-20T20:28:57.066Z,56.98
2022-10-20T20:31:24.621Z,58.50
2022-10-20T20:33:52.419Z,58.57
2022-10-20T20:36:19.337Z,63.12
2022-10-20T20:38:45.923Z,61.73
2022-10-20T20:41:15.128Z,61.16
2022-10-20T20:43:45.027Z,58.84
2022-10-20T20:46:14.212Z,58.64
2022-10-20T20:48:41.172Z,59.82
2022-10-20T20:51:07.759Z,59.66
2022-10-20T20:53:35.980Z,59.91
2022-10-20T20:56:05.682Z,60.56
2022-10-20T20:58:32.952Z,60.96
2022-10-20T21:01:04.386Z,62.33
2022-10-20T21:03:32.168Z,63.70
2022-10-20T21:06:06.816Z,65.52
2022-10-20T21:08:34.584Z,66.75
2022-10-20T21:11:21.996Z,65.98
2022-10-20T21:13:50.027Z,67.84
2022-10-20T21:16:24.255Z,64.28
2022-10-20T21:18:53.926Z,63.85
2022-10-20T21:21:28.155Z,63.81
2022-10-20T21:23:56.448Z,62.79
2022-10-20T21:26:23.607Z,64.41
2022-10-20T21:28:50.641Z,63.45
2022-10-20T21:31:19.657Z,64.45
2022-10-20T21:33:50.289Z,64.74
2022-10-20T21:36:19.316Z,68.66
2022-10-20T21:38:46.576Z,69.60
2022-10-20T21:41:19.341Z,68.65
2022-10-20T21:43:57.198Z,69.13
2022-10-20T21:46:25.751Z,69.61
2022-10-20T21:48:54.619Z,70.07
2022-10-20T21:51:25.567Z,69.82
2022-10-20T21:54:04.659Z,70.58
2022-10-20T21:56:36.266Z,70.75
2022-10-20T21:59:04.087Z,71.47
2022-10-20T22:01:30.697Z,71.67
2022-10-20T22:03:57.501Z,72.71
2022-10-20T22:06:26.234Z,71.16
2022-10-20T22:08:56.103Z,73.09
2022-10-20T22:11:26.224Z,72.59
2022-10-20T22:13:52.823Z,74.44
2022-10-20T22:16:21.901Z,75.08
2022-10-20T22:18:48.564Z,76.88
2022-10-20T22:21:17.914Z,75.64
2022-10-20T22:23:45.485Z,75.79
2022-10-20T22:26:12.767Z,76.34
2022-10-20T22:28:39.814Z,76.76
2022-10-20T22:31:07.489Z,76.36
2022-10-20T22:33:34.395Z,77.42
2022-10-20T22:36:00.936Z,78.07
2022-10-20T22:38:27.448Z,80.08
2022-10-20T22:40:58.722Z,81.33
2022-10-20T22:43:25.890Z,80.67
2022-10-20T22:45:52.409Z,80.22
2022-10-20T22:48:18.919Z,78.31
2022-10-20T22:50:45.467Z,78.61
2022-10-20T22:53:12.126Z,79.47
2022-10-20T22:55:38.612Z,80.35
2022-10-20T22:58:05.153Z,81.21
2022-10-20T23:00:31.683Z,80.84
2022-10-20T23:02:58.284Z,81.13
2022-10-20T23:05:24.865Z,79.09
2022-10-20T23:07:51.392Z,78.99
2022-10-20T23:10:18.016Z,79.73
2022-10-20T23:12:44.643Z,79.43
2022-10-20T23:15:11.298Z,80.26
2022-10-20T23:17:38.183Z,81.80
2022-10-20T23:20:05.626Z,82.90
2022-10-20T23:22:32.150Z,83.10
2022-10-20T23:24:58.661Z,83.38
2022-10-20T23:27:25.336Z,82.85
2022-10-20T23:29:51.895Z,83.13
2022-10-20T23:32:18.400Z,84.11
2022-10-20T23:34:44.904Z,84.24
2022-10-20T23:37:11.430Z,83.10
2022-10-20T23:39:37.939Z,82.99
2022-10-20T23:42:07.209Z,84.41
2022-10-20T23:44:34.122Z,84.65
2022-10-20T23:47:00.917Z,84.46
2022-10-20T23:49:27.515Z,84.68
2022-10-20T23:51:54.137Z,86.11
2022-10-20T23:54:20.971Z,83.67
2022-10-20T23:56:47.508Z,84.29
2022-10-20T23:59:14.071Z,85.70
